• Join FlightAware (Why Join?)
  • Login
  • US Flag 
05:52AM EDT


 

Airport Tracker/Info


-or-


 

Live Flight TrackerFlight Track Log ✈ UAL1259 ✈ 23-Apr-2013 ✈ KIAH - KLGA

Flight Track Log - Related Links

Times and Time Zones

All times are in EDT time to prevent confusion due to time zone crossing. See the UAL1259 flight status page for this flight to view local times or setup timezone preferences in your user account.

Time Position Orientation Groundspeed Altitude Reporting Facility
EDT Latitude Longitude Course Direction KTS MPH feet Rate Location/Type
01:24PM 29.9764 -95.2983 30° Northeast 232 267 800  Level Houston Center
01:25PM 29.9986 -95.2644 53° Northeast 199 229 2,400 2,460 Climbing Houston Center
01:26PM 30.0367 -95.2472 21° North 244 281 4,300 2,940 Climbing Houston Center
01:26PM 30.0589 -95.2353 25° Northeast 268 308 5,100 3,000 Climbing Houston Center
01:27PM 30.2824 -95.0895 30° Northeast  Level FlightAware Approximate
01:27PM 30.1072 -95.2069 27° Northeast 286 329 7,400  Level Houston Center
01:27PM 30.1422 -95.1817 32° Northeast 309 356 9,000 3,480 Climbing Houston Center
01:28PM 30.3852 -95.0118 35° Northeast  Level FlightAware Approximate
01:28PM 30.1822 -95.1556 29° Northeast 311 358 11,000  Level Houston Center
01:29PM 30.4836 -94.9276 30° Northeast  Level FlightAware Approximate
01:29PM 30.2636 -95.1008 30° Northeast 337 388 13,800  Level Houston Center
01:30PM 30.3522 -95.0419 30° Northeast 364 419 16,800 2,640 Climbing Houston Center
01:31PM 30.4464 -94.9753 31° Northeast 382 440 19,300 2,520 Climbing Houston Center
01:32PM 30.5397 -94.9008 34° Northeast 399 459 22,100 2,640 Climbing Houston Center
01:33PM 30.6572 -94.8106 33° Northeast 418 481 24,800 2,460 Climbing Houston Center
01:34PM 30.7581 -94.7347 33° Northeast 428 493 27,300 1,980 Climbing Houston Center
01:35PM 30.8608 -94.6550 34° Northeast 440 506 28,900 1,560 Climbing Houston Center
01:35PM 30.9006 -94.6222 35° Northeast 438 504 29,500 1,560 Climbing Fort Worth Center
01:36PM 31.0136 -94.5364 33° Northeast 453 521 31,000 1,560 Climbing Fort Worth Center
01:37PM 31.1222 -94.4506 34° Northeast 463 533 32,700 1,500 Climbing Fort Worth Center
01:38PM 31.2328 -94.3644 34° Northeast 470 541 34,100 1,260 Climbing Fort Worth Center
01:39PM 31.3478 -94.2781 33° Northeast 481 554 35,300 1,200 Climbing Fort Worth Center
01:40PM 31.4622 -94.1864 34° Northeast 481 554 36,600 1,500 Climbing Fort Worth Center
01:41PM 31.5728 -94.0997 34° Northeast 481 554 38,300 1,200 Climbing Fort Worth Center
01:42PM 31.6792 -94.0178 33° Northeast 468 539 39,000 300 Climbing Fort Worth Center
01:43PM 31.7936 -93.9306 33° Northeast 473 544 39,000  Level Fort Worth Center
01:44PM 31.9058 -93.8381 35° Northeast 478 550 39,000  Level Fort Worth Center
01:45PM 32.0200 -93.7431 35° Northeast 483 556 39,000  Level Fort Worth Center
01:46PM 32.1344 -93.6575 32° Northeast 489 563 39,000  Level Fort Worth Center
01:47PM 32.2461 -93.5572 37° Northeast 494 568 39,000  Level Fort Worth Center
01:48PM 32.3625 -93.4661 33° Northeast 499 574 39,000  Level Fort Worth Center
01:49PM 32.4744 -93.3775 34° Northeast 499 574 39,000  Level Fort Worth Center
01:50PM 32.5883 -93.2886 33° Northeast 499 574 39,000  Level Fort Worth Center
01:51PM 32.7000 -93.1944 35° Northeast 499 574 39,000  Level Fort Worth Center
01:52PM 32.8139 -93.1053 33° Northeast 499 574 39,000  Level Fort Worth Center
01:53PM 32.9275 -93.0106 35° Northeast 499 574 39,000  Level Fort Worth Center
01:55PM 33.1400 -92.8431 33° Northeast 530 610 39,000  Level Memphis Center
01:56PM 33.2483 -92.7469 37° Northeast 504 580 39,000  Level Memphis Center
01:57PM 33.3425 -92.6178 49° Northeast 498 573 39,000  Level Memphis Center
01:58PM 33.4306 -92.4856 51° Northeast 498 573 39,000  Level Memphis Center
01:59PM 33.5161 -92.3531 52° Northeast 498 573 39,000  Level Memphis Center
02:00PM 33.5975 -92.2228 53° Northeast 498 573 39,000  Level Memphis Center
02:01PM 33.6850 -92.0922 51° Northeast 498 573 39,000  Level Memphis Center
02:02PM 33.7700 -91.9614 52° Northeast 498 573 39,000  Level Memphis Center
02:03PM 33.8553 -91.8306 52° Northeast 498 573 39,000  Level Memphis Center
02:04PM 33.9294 -91.7242 50° Northeast 498 573 39,000  Level Memphis Center
02:05PM 34.0144 -91.5800 55° Northeast 498 573 39,000  Level Memphis Center
02:06PM 34.1119 -91.4283 52° Northeast 507 583 39,000  Level Memphis Center
02:07PM 34.1964 -91.2964 52° Northeast 507 583 39,000  Level Memphis Center
02:08PM 34.2786 -91.1639 53° Northeast 501 577 39,000  Level Memphis Center
02:09PM 34.3544 -91.0464 52° Northeast 501 577 39,000  Level Memphis Center
02:10PM 34.4408 -90.9136 52° Northeast 496 571 39,000  Level Memphis Center
02:11PM 34.5247 -90.7781 53° Northeast 496 571 39,000  Level Memphis Center
02:12PM 34.6086 -90.6422 53° Northeast 496 571 39,000  Level Memphis Center
02:13PM 34.6900 -90.5061 54° Northeast 496 571 39,000  Level Memphis Center
02:14PM 34.7758 -90.3544 55° Northeast 496 571 39,000  Level Memphis Center
02:15PM 34.8739 -90.2356 45° Northeast 496 571 39,000  Level Memphis Center
02:16PM 34.9717 -90.1214 44° Northeast 484 557 39,000  Level Memphis Center
02:17PM 35.0694 -90.0069 44° Northeast 484 557 39,000  Level Memphis Center
02:18PM 35.1442 -89.8669 57° Northeast 485 558 39,000  Level Memphis Center
02:19PM 35.1933 -89.7092 69° East 485 558 39,000  Level Memphis Center
02:20PM 35.2447 -89.5536 68° East 485 558 39,000  Level Memphis Center
02:21PM 35.2956 -89.3956 68° East 485 558 39,000  Level Memphis Center
02:22PM 35.3464 -89.2369 69° East 490 564 39,000  Level Memphis Center
02:23PM 35.3969 -89.0758 69° East 490 564 39,000  Level Memphis Center
02:24PM 35.4433 -88.9325 68° East 497 572 39,000  Level Memphis Center
02:25PM 35.4958 -88.7708 68° East 497 572 39,000  Level Memphis Center
02:26PM 35.5456 -88.6117 69° East 497 572 39,000  Level Memphis Center
02:27PM 35.5975 -88.4522 68° East 497 572 39,000  Level Memphis Center
02:28PM 35.6492 -88.2953 68° East 497 572 39,000  Level Memphis Center
02:29PM 35.6989 -88.1433 68° East 489 563 39,000  Level Memphis Center
02:30PM 35.7497 -87.9706 70° East 482 555 39,000  Level Memphis Center
02:31PM 35.7986 -87.8078 70° East 488 562 39,000  Level Memphis Center
02:32PM 35.8475 -87.6500 69° East 493 567 39,000  Level Memphis Center
02:33PM 35.8961 -87.4922 69° East 493 567 39,000  Level Memphis Center
02:34PM 35.9444 -87.3314 70° East 493 567 39,000  Level Memphis Center
02:35PM 35.9903 -87.1708 71° East 493 567 39,000  Level Memphis Center
02:36PM 36.0361 -87.0097 71° East 488 562 39,000  Level Memphis Center
02:37PM 36.0839 -86.8461 70° East 493 567 39,000  Level Memphis Center
02:38PM 36.1353 -86.6819 69° East 493 567 39,000  Level Memphis Center
02:39PM 36.1886 -86.5175 68° East 503 579 39,000  Level Memphis Center
02:40PM 36.2400 -86.3581 68° East 503 579 39,000  Level Memphis Center
02:41PM 36.2950 -86.1958 67° East 498 573 39,000  Level Memphis Center
02:42PM 36.3458 -86.0336 69° East 506 582 39,000  Level Memphis Center
02:44PM 36.4494 -85.7122 68° East 512 589 39,000  Level Indianapolis Center
02:45PM 36.5011 -85.5483 69° East 509 586 39,000  Level Indianapolis Center
02:46PM 36.5514 -85.3842 69° East 507 583 39,000  Level Indianapolis Center
02:47PM 36.6036 -85.2192 68° East 509 586 39,000  Level Indianapolis Center
02:48PM 36.6539 -85.0531 69° East 509 586 39,000  Level Indianapolis Center
02:49PM 36.7042 -84.8867 69° East 509 586 39,000  Level Indianapolis Center
02:50PM 36.7497 -84.7164 71° East 512 589 39,000 -300 Level Indianapolis Center
02:51PM 36.7808 -84.5397 78° East 517 595 38,500 -780 Descending Indianapolis Center
02:52PM 36.8339 -84.3753 68° East 501 577 37,500 -780 Descending Indianapolis Center
02:53PM 36.8925 -84.1856 69° East 499 574 37,000 -300 Descending Indianapolis Center
02:54PM 36.9419 -84.0231 69° East 499 574 37,000  Level Indianapolis Center
02:55PM 36.9911 -83.8589 69° East 499 574 37,000  Level Indianapolis Center
02:56PM 37.0414 -83.6967 69° East 496 571 37,000  Level Indianapolis Center
02:57PM 37.0900 -83.5342 69° East 495 570 37,000  Level Indianapolis Center
02:58PM 37.1394 -83.3703 69° East 498 573 37,000  Level Indianapolis Center
02:59PM 37.1872 -83.2061 70° East 496 571 37,000  Level Indianapolis Center
03:01PM 37.2439 -83.0150 70° East 494 568 37,000  Level Indianapolis Center
03:02PM 37.2911 -82.8522 70° East 490 564 37,000  Level Indianapolis Center
03:03PM 37.3397 -82.6906 69° East 489 563 37,000  Level Indianapolis Center
03:04PM 37.3847 -82.5286 71° East 487 560 37,000  Level Indianapolis Center
03:05PM 37.4128 -82.3561 78° East 498 573 37,000  Level Indianapolis Center
03:06PM 37.4419 -82.1856 78° East 498 573 37,000  Level Indianapolis Center
03:07PM 37.4958 -82.0325 66° East 481 554 37,000  Level Indianapolis Center
03:08PM 37.5533 -81.8500 68° East 481 554 37,000  Level Indianapolis Center
03:09PM 37.6042 -81.6931 68° East 481 554 37,000  Level Indianapolis Center
03:10PM 37.6528 -81.5358 69° East 481 554 37,000  Level Indianapolis Center
03:11PM 37.6997 -81.3844 69° East 482 555 37,000  Level Indianapolis Center
03:12PM 37.7536 -81.2103 69° East 471 542 37,000  Level Washington Center
03:13PM 37.7864 -81.0444 76° East 463 533 37,000  Level Washington Center
03:14PM 37.7964 -80.8664 86° East 483 556 37,000  Level Washington Center
03:15PM 37.8081 -80.6939 85° East 488 562 37,000  Level Washington Center
03:16PM 37.8192 -80.5342 85° East 501 577 37,000  Level Washington Center
03:17PM 37.8303 -80.3614 85° East 501 577 37,000  Level Washington Center
03:18PM 37.8411 -80.1858 85° East 496 571 37,000 -60 Level Washington Center
03:19PM 37.8517 -80.0208 85° East 489 563 36,900 -1,020 Descending Washington Center
03:20PM 37.8619 -79.8531 86° East 478 550 35,000 -960 Descending Washington Center
03:21PM 37.8747 -79.6617 85° East 484 557 35,000  Level Washington Center
03:22PM 37.8847 -79.4858 86° East 490 564 35,000  Level Washington Center
03:23PM 37.8925 -79.3125 87° East 495 570 35,000  Level Washington Center
03:24PM 37.9039 -79.1369 85° East 495 570 35,000  Level Washington Center
03:25PM 37.9214 -78.9639 83° East 495 570 35,000  Level Washington Center
03:26PM 37.9403 -78.8094 81° East 495 570 35,000  Level Washington Center
03:27PM 37.9614 -78.6444 81° East 489 563 35,000  Level Washington Center
03:28PM 37.9800 -78.4764 82° East 483 556 35,000  Level Washington Center
03:29PM 38.0008 -78.3086 81° East 478 550 35,000  Level Washington Center
03:30PM 38.0150 -78.1300 84° East 483 556 35,000  Level Washington Center
03:31PM 38.0222 -77.9800 86° East 473 544 35,000  Level Washington Center
03:32PM 38.0339 -77.8117 85° East 473 544 35,000  Level Washington Center
03:33PM 38.0431 -77.6458 86° East 473 544 35,000  Level Washington Center
03:34PM 38.0519 -77.4797 86° East 473 544 35,000  Level Washington Center
03:35PM 38.0631 -77.2981 86° East 473 544 35,000 -300 Level Washington Center
03:36PM 38.0903 -77.1378 78° East 473 544 34,500 -780 Descending Washington Center
03:37PM 38.1400 -76.9911 67° East 456 525 33,500 -1,020 Descending Washington Center
03:38PM 38.1833 -76.8411 70° East 450 518 32,500 -1,020 Descending Washington Center
03:39PM 38.2308 -76.6939 68° East 450 518 31,500 -780 Descending Washington Center
03:40PM 38.3292 -76.6267 28° Northeast 394 453 31,000 -300 Descending Washington Center
03:41PM 38.4300 -76.5617 27° Northeast 389 448 31,000  Level Washington Center
03:42PM 38.5306 -76.4967 27° Northeast 394 453 31,000 -540 Level Washington Center
03:43PM 38.6331 -76.4314 26° Northeast 399 459 30,000 -1,080 Descending Washington Center
03:44PM 38.7356 -76.3742 24° Northeast 399 459 28,900 -1,080 Descending Washington Center
03:45PM 38.8156 -76.2764 44° Northeast 392 451 27,900 -960 Descending Washington Center
03:46PM 38.8286 -76.1406 83° East 377 434 27,000 -480 Descending Washington Center
03:47PM 38.8211 -75.9806 93° East 384 442 27,000  Level Washington Center
03:48PM 38.8650 -75.8528 66° East 405 466 27,000 -60 Level Washington Center
03:49PM 38.9569 -75.7758 33° Northeast 374 430 26,900 -60 Descending Washington Center
03:50PM 39.0486 -75.6933 35° Northeast 380 437 26,900 -600 Level Washington Center
03:51PM 39.1406 -75.6050 37° Northeast 398 458 25,700 -1,380 Descending Washington Center
03:52PM 39.2300 -75.5219 36° Northeast 398 458 24,200 -1,440 Descending Washington Center
03:53PM 39.3175 -75.4414 35° Northeast 398 458 22,900 -1,200 Descending Washington Center
03:54PM 39.4092 -75.3633 33° Northeast 393 452 21,900 -1,380 Descending Washington Center
03:55PM 39.4964 -75.2850 35° Northeast 388 447 20,200 -960 Descending Washington Center
03:56PM 39.5775 -75.2092 36° Northeast 378 435 20,000 -120 Descending Washington Center
03:57PM 39.6606 -75.1306 36° Northeast 372 428 20,000 -900 Level Washington Center
03:58PM 39.7497 -75.0492 35° Northeast 361 415 18,300 -1,680 Descending Washington Center
03:59PM 39.8203 -74.9917 32° Northeast 350 403 16,700 -1,740 Descending Washington Center
04:01PM 39.9500 -74.8500 40° Northeast 319 367 13,600 -1,560 Descending New York TRACON
04:02PM 40.0167 -74.7667 44° Northeast 291 335 12,400 -1,440 Descending New York TRACON
04:03PM 40.0667 -74.7000 46° Northeast 284 327 10,800 -1,200 Descending New York TRACON
04:04PM 40.1167 -74.6167 52° Northeast 277 319 10,000 -420 Descending New York TRACON
04:05PM 40.1667 -74.5500 46° Northeast 279 321 10,000  Level New York TRACON
04:06PM 40.2167 -74.4833 46° Northeast 276 318 10,000 -360 Level New York TRACON
04:07PM 40.2667 -74.4167 45° Northeast 242 278 9,300 -900 Descending New York TRACON
04:08PM 40.3167 -74.3500 45° Northeast 233 268 8,300 -1,020 Descending New York TRACON
04:09PM 40.3667 -74.2833 45° Northeast 228 262 7,300 -660 Descending New York TRACON
04:10PM 40.4000 -74.2333 49° Northeast 224 258 7,000 -600 Descending New York TRACON
04:11PM 40.4500 -74.1833 37° Northeast 222 255 6,200 -780 Descending New York TRACON
04:12PM 40.4833 -74.1333 49° Northeast 188 216 5,500 -900 Descending New York TRACON
04:13PM 40.5333 -74.0833 37° Northeast 179 206 4,400 -1,080 Descending New York TRACON
04:14PM 40.5667 -74.0500 37° Northeast 173 199 3,300 -840 Descending New York TRACON
04:15PM 40.6167 -74.0167 27° Northeast 153 176 2,700 -360 Descending New York TRACON
04:16PM 40.6500 -73.9833 37° Northeast 149 171 2,700 -300 Level New York TRACON
04:17PM 40.6833 -73.9667 21° North 149 171 2,200 -480 Descending New York TRACON